createdAt,value
2024-03-16T00:02:04.673Z,5.63
2024-03-16T00:04:34.034Z,5.61
2024-03-16T00:07:02.493Z,5.60
2024-03-16T00:09:31.137Z,5.56
2024-03-16T00:11:59.523Z,5.60
2024-03-16T00:14:28.009Z,5.63
2024-03-16T00:16:56.751Z,5.65
2024-03-16T00:19:26.033Z,5.64
2024-03-16T00:21:54.417Z,5.61
2024-03-16T00:24:22.668Z,5.61
2024-03-16T00:26:51.084Z,5.59
2024-03-16T00:29:19.503Z,5.64
2024-03-16T00:31:50.330Z,5.61
2024-03-16T00:34:18.927Z,5.59
2024-03-16T00:36:47.378Z,5.64
2024-03-16T00:39:19.655Z,5.73
2024-03-16T00:41:49.036Z,5.67
2024-03-16T00:44:17.556Z,5.62
2024-03-16T00:46:47.080Z,5.74
2024-03-16T00:49:15.450Z,5.75
2024-03-16T00:51:45.347Z,5.71
2024-03-16T00:54:13.803Z,5.67
2024-03-16T00:56:42.160Z,5.67
2024-03-16T00:59:10.547Z,5.72
2024-03-16T01:01:39.073Z,5.71
2024-03-16T01:04:07.490Z,5.63
2024-03-16T01:06:35.850Z,5.66
2024-03-16T01:09:05.117Z,5.67
2024-03-16T01:11:33.735Z,5.61
2024-03-16T01:14:02.259Z,5.56
2024-03-16T01:16:30.676Z,5.46
2024-03-16T01:18:59.162Z,5.51
2024-03-16T01:21:27.629Z,5.54
2024-03-16T01:23:55.817Z,5.57
2024-03-16T01:26:24.170Z,5.59
2024-03-16T01:28:52.519Z,5.55
2024-03-16T01:31:20.830Z,5.55
2024-03-16T01:33:48.877Z,5.53
2024-03-16T01:36:17.327Z,5.47
2024-03-16T01:38:45.930Z,5.45
2024-03-16T01:41:14.441Z,5.46
2024-03-16T01:43:49.140Z,5.45
2024-03-16T01:46:18.404Z,5.43
2024-03-16T01:48:50.567Z,5.51
2024-03-16T01:51:19.232Z,5.53
2024-03-16T01:53:47.619Z,5.60
2024-03-16T01:56:16.188Z,5.65
2024-03-16T01:58:46.806Z,5.66
2024-03-16T02:01:15.059Z,5.68
2024-03-16T02:03:44.422Z,5.69
2024-03-16T02:06:13.008Z,5.71
2024-03-16T02:08:41.314Z,5.74
2024-03-16T02:11:09.734Z,5.79
2024-03-16T02:13:38.124Z,5.80
2024-03-16T02:16:06.966Z,5.74
2024-03-16T02:18:35.312Z,5.84
2024-03-16T02:21:06.176Z,5.86
2024-03-16T02:23:34.724Z,5.85
2024-03-16T02:26:03.667Z,5.86
2024-03-16T02:28:32.007Z,5.88
2024-03-16T02:31:00.430Z,5.87
2024-03-16T02:33:28.978Z,5.88
2024-03-16T02:35:58.416Z,5.96
2024-03-16T02:38:26.615Z,5.95
2024-03-16T02:40:55.170Z,5.99
2024-03-16T02:43:23.790Z,5.99
2024-03-16T02:45:53.708Z,6.01
2024-03-16T02:48:22.162Z,6.06
2024-03-16T02:50:50.540Z,6.04
2024-03-16T02:53:19.417Z,6.02
2024-03-16T02:55:47.962Z,5.97
2024-03-16T02:58:16.364Z,5.93
2024-03-16T03:00:45.537Z,5.83
2024-03-16T03:03:14.011Z,5.77
2024-03-16T03:05:42.181Z,5.77
2024-03-16T03:08:11.356Z,5.85
2024-03-16T03:10:42.804Z,5.87
2024-03-16T03:13:11.491Z,5.85
2024-03-16T03:15:40.138Z,5.83
2024-03-16T03:18:08.698Z,5.70
2024-03-16T03:20:37.099Z,5.63
2024-03-16T03:23:06.697Z,5.60
2024-03-16T03:25:37.237Z,5.51
2024-03-16T03:28:05.858Z,5.52
2024-03-16T03:30:34.317Z,5.54
2024-03-16T03:33:02.749Z,5.53
2024-03-16T03:35:33.029Z,5.56
2024-03-16T03:38:01.452Z,5.65
2024-03-16T03:40:30.283Z,5.65
2024-03-16T03:43:01.824Z,5.68
2024-03-16T03:45:49.675Z,5.68
2024-03-16T03:48:24.520Z,5.71
2024-03-16T03:50:55.523Z,5.76
2024-03-16T03:53:28.459Z,5.79
2024-03-16T03:55:56.933Z,5.81
2024-03-16T03:58:25.874Z,5.77
2024-03-16T04:00:54.456Z,5.82
2024-03-16T04:03:22.944Z,5.81
2024-03-16T04:05:54.573Z,5.83
2024-03-16T04:08:23.028Z,5.85
2024-03-16T04:10:51.489Z,5.82
2024-03-16T04:13:19.685Z,5.61
2024-03-16T04:15:48.177Z,5.62
2024-03-16T04:18:16.384Z,5.56
2024-03-16T04:20:44.671Z,5.60
2024-03-16T04:23:13.869Z,5.58
2024-03-16T04:25:42.227Z,5.58
2024-03-16T04:28:13.231Z,5.52
2024-03-16T04:30:41.808Z,5.62
2024-03-16T04:33:10.239Z,5.66
2024-03-16T04:35:38.705Z,5.65
2024-03-16T04:38:09.289Z,5.79
2024-03-16T04:40:37.640Z,5.82
2024-03-16T04:43:06.268Z,5.87
2024-03-16T04:45:34.781Z,5.88
2024-03-16T04:48:03.323Z,5.88
2024-03-16T04:50:31.842Z,5.88
2024-03-16T04:52:59.862Z,5.81
2024-03-16T04:55:28.299Z,5.83
2024-03-16T04:57:58.882Z,5.81
2024-03-16T05:00:27.655Z,5.84
2024-03-16T05:02:56.345Z,5.92
2024-03-16T05:05:24.620Z,5.83
2024-03-16T05:07:53.080Z,5.74
2024-03-16T05:10:21.605Z,5.78
2024-03-16T05:12:51.483Z,5.83
2024-03-16T05:15:19.985Z,5.74
2024-03-16T05:17:48.347Z,5.65
2024-03-16T05:20:16.647Z,5.62
2024-03-16T05:22:44.901Z,5.62
2024-03-16T05:25:13.211Z,5.65
2024-03-16T05:27:41.773Z,5.69
2024-03-16T05:30:10.839Z,5.79
2024-03-16T05:32:39.394Z,5.84
2024-03-16T05:35:09.979Z,5.90
2024-03-16T05:37:38.750Z,5.89
2024-03-16T05:40:07.903Z,5.92
2024-03-16T05:42:38.906Z,6.06
2024-03-16T05:45:08.584Z,6.16
2024-03-16T05:47:37.644Z,6.17
2024-03-16T05:50:07.090Z,6.20
2024-03-16T05:52:37.046Z,6.16
2024-03-16T05:55:06.379Z,6.21
2024-03-16T05:57:34.908Z,6.25
2024-03-16T06:00:05.290Z,6.27
2024-03-16T06:02:41.521Z,6.29
2024-03-16T06:05:10.808Z,6.36
2024-03-16T06:07:39.255Z,6.34
2024-03-16T06:10:12.043Z,6.42
2024-03-16T06:12:40.685Z,6.55
2024-03-16T06:15:10.170Z,6.56
2024-03-16T06:17:38.623Z,6.54
2024-03-16T06:20:08.209Z,6.60
2024-03-16T06:22:36.421Z,6.66
2024-03-16T06:25:05.803Z,6.74
2024-03-16T06:27:35.196Z,6.81
2024-03-16T06:30:04.009Z,6.79
2024-03-16T06:32:35.590Z,6.83
2024-03-16T06:35:05.730Z,6.89
2024-03-16T06:37:34.049Z,6.95
2024-03-16T06:40:02.489Z,7.02
2024-03-16T06:42:30.767Z,7.06
2024-03-16T06:44:59.396Z,7.11
2024-03-16T06:47:28.883Z,7.17
2024-03-16T06:49:57.274Z,7.28
2024-03-16T06:52:28.440Z,7.36
2024-03-16T06:54:56.852Z,7.47
2024-03-16T06:57:26.228Z,7.54
2024-03-16T06:59:54.627Z,7.61
2024-03-16T07:02:23.277Z,7.61
2024-03-16T07:04:51.782Z,7.48
2024-03-16T07:07:20.178Z,7.59
2024-03-16T07:09:48.813Z,7.63
2024-03-16T07:12:17.228Z,7.74
2024-03-16T07:14:45.747Z,7.80
2024-03-16T07:17:14.145Z,7.92
2024-03-16T07:19:42.331Z,7.96
2024-03-16T07:22:11.009Z,8.01
2024-03-16T07:24:39.703Z,8.01
2024-03-16T07:27:08.646Z,7.99
2024-03-16T07:29:37.843Z,8.03
2024-03-16T07:32:07.161Z,8.03
2024-03-16T07:34:35.652Z,8.07
2024-03-16T07:37:05.606Z,8.15
2024-03-16T07:39:34.096Z,8.23
2024-03-16T07:42:02.635Z,8.33
2024-03-16T07:44:32.543Z,8.38
2024-03-16T07:47:01.376Z,8.47
2024-03-16T07:49:30.283Z,8.51
2024-03-16T07:51:59.034Z,8.53
2024-03-16T07:54:27.197Z,8.57
2024-03-16T07:56:55.539Z,8.62
2024-03-16T07:59:24.020Z,8.63
2024-03-16T08:01:52.488Z,8.59
2024-03-16T08:04:21.236Z,8.63
2024-03-16T08:06:49.683Z,8.67
2024-03-16T08:09:18.363Z,8.74
2024-03-16T08:11:46.779Z,8.81
2024-03-16T08:14:15.394Z,8.76
2024-03-16T08:16:43.690Z,8.80
2024-03-16T08:19:12.429Z,8.79
2024-03-16T08:21:41.180Z,8.74
2024-03-16T08:24:09.695Z,8.74
2024-03-16T08:26:38.224Z,8.69
2024-03-16T08:29:06.769Z,8.74
2024-03-16T08:31:35.199Z,8.74
2024-03-16T08:34:03.654Z,8.83
2024-03-16T08:36:32.391Z,8.86
2024-03-16T08:39:04.946Z,8.88
2024-03-16T08:41:33.397Z,8.96
2024-03-16T08:44:01.835Z,9.08
2024-03-16T08:46:30.470Z,9.22
2024-03-16T08:48:59.512Z,9.32
2024-03-16T08:51:28.431Z,9.45
2024-03-16T08:53:57.227Z,9.58
2024-03-16T08:56:29.367Z,9.68
2024-03-16T08:58:57.876Z,9.71
2024-03-16T09:01:26.325Z,9.81
2024-03-16T09:03:54.793Z,9.90
2024-03-16T09:06:23.286Z,9.92
2024-03-16T09:08:51.947Z,9.86
2024-03-16T09:11:20.185Z,9.89
2024-03-16T09:13:48.352Z,9.92
2024-03-16T09:16:17.042Z,9.90
2024-03-16T09:18:46.516Z,9.97
2024-03-16T09:21:15.079Z,9.96
2024-03-16T09:23:43.275Z,10.04
2024-03-16T09:26:12.043Z,10.05
2024-03-16T09:28:40.411Z,10.20
2024-03-16T09:31:11.674Z,10.20
2024-03-16T09:33:40.262Z,10.16
2024-03-16T09:36:08.686Z,10.12
2024-03-16T09:38:37.474Z,10.14
2024-03-16T09:41:05.926Z,10.18
2024-03-16T09:43:35.021Z,10.26
2024-03-16T09:46:05.549Z,10.24
2024-03-16T09:48:34.092Z,10.25
2024-03-16T09:51:02.913Z,10.38
2024-03-16T09:53:33.413Z,10.58
2024-03-16T09:56:11.581Z,10.66
2024-03-16T09:58:41.269Z,10.59
2024-03-16T10:01:10.943Z,10.62
2024-03-16T10:03:39.329Z,10.65
2024-03-16T10:06:10.271Z,10.62
2024-03-16T10:08:38.454Z,10.59
2024-03-16T10:11:17.075Z,10.67
2024-03-16T10:13:54.843Z,10.72
2024-03-16T10:16:22.888Z,10.71
2024-03-16T10:18:53.866Z,10.81
2024-03-16T10:21:22.139Z,10.93
2024-03-16T10:23:50.530Z,10.94
2024-03-16T10:26:18.839Z,10.94
2024-03-16T10:28:47.372Z,10.93
2024-03-16T10:31:16.080Z,10.95
2024-03-16T10:33:44.487Z,11.03
2024-03-16T10:36:19.174Z,11.04
2024-03-16T10:38:48.183Z,11.03
2024-03-16T10:41:17.795Z,11.04
2024-03-16T10:43:48.712Z,11.12
2024-03-16T10:46:17.119Z,11.10
2024-03-16T10:48:46.609Z,11.19
2024-03-16T10:51:19.014Z,11.34
2024-03-16T10:53:47.995Z,11.40
2024-03-16T10:56:17.733Z,11.46
2024-03-16T10:58:46.053Z,11.54
2024-03-16T11:01:19.651Z,11.65
2024-03-16T11:03:56.660Z,11.65
2024-03-16T11:06:26.805Z,11.60
2024-03-16T11:08:54.891Z,11.54
2024-03-16T11:11:29.870Z,11.49
2024-03-16T11:13:59.584Z,11.50
2024-03-16T11:16:35.175Z,11.45
2024-03-16T11:19:08.969Z,11.39
2024-03-16T11:21:39.828Z,11.41
2024-03-16T11:24:15.024Z,11.36
2024-03-16T11:26:45.064Z,11.24
2024-03-16T11:29:22.588Z,11.13
2024-03-16T11:31:54.802Z,11.12
2024-03-16T11:34:23.823Z,11.00
2024-03-16T11:36:55.013Z,11.01
2024-03-16T11:39:26.605Z,10.97
2024-03-16T11:42:14.389Z,10.98
2024-03-16T11:44:47.162Z,10.98
2024-03-16T11:47:17.572Z,10.96
2024-03-16T11:49:45.861Z,10.96
2024-03-16T11:52:14.111Z,10.97
2024-03-16T11:54:49.112Z,10.91
2024-03-16T11:57:17.573Z,11.01
2024-03-16T11:59:46.981Z,10.99
2024-03-16T12:02:15.554Z,11.00
2024-03-16T12:04:43.964Z,11.02
2024-03-16T12:07:12.609Z,11.02
2024-03-16T12:09:56.757Z,11.04
2024-03-16T12:12:25.910Z,11.13
2024-03-16T12:15:27.035Z,11.17
2024-03-16T12:17:55.986Z,11.26
2024-03-16T12:20:24.350Z,11.31
2024-03-16T12:22:54.436Z,11.31
2024-03-16T12:25:28.201Z,11.33
2024-03-16T12:28:01.000Z,11.39
2024-03-16T12:30:35.523Z,11.52
2024-03-16T12:33:04.535Z,11.54
2024-03-16T12:35:36.768Z,11.61
2024-03-16T12:38:05.211Z,11.66
2024-03-16T12:40:35.640Z,11.74
2024-03-16T12:43:05.499Z,11.80
2024-03-16T12:45:33.745Z,11.89
2024-03-16T12:48:02.265Z,11.98
2024-03-16T12:50:30.610Z,12.05
2024-03-16T12:52:58.904Z,12.16
2024-03-16T12:55:27.584Z,12.29
2024-03-16T12:57:55.878Z,12.34
2024-03-16T13:00:27.011Z,12.45
2024-03-16T13:02:55.746Z,12.57
2024-03-16T13:05:24.304Z,12.67
2024-03-16T13:07:52.666Z,12.59
2024-03-16T13:10:22.939Z,12.72
2024-03-16T13:12:52.984Z,12.87
2024-03-16T13:15:22.044Z,12.98
2024-03-16T13:17:51.077Z,13.07
2024-03-16T13:20:19.428Z,13.24
2024-03-16T13:22:55.048Z,13.29
2024-03-16T13:25:29.724Z,13.19
2024-03-16T13:27:58.060Z,13.29
2024-03-16T13:30:26.404Z,13.29
2024-03-16T13:32:54.634Z,13.26
2024-03-16T13:35:24.022Z,13.41
2024-03-16T13:37:52.228Z,13.52
2024-03-16T13:40:20.612Z,13.70
2024-03-16T13:42:48.967Z,13.86
2024-03-16T13:45:17.330Z,14.04
2024-03-16T13:47:47.520Z,14.24
2024-03-16T13:50:15.890Z,14.42
2024-03-16T13:52:44.089Z,14.42
2024-03-16T13:55:19.324Z,14.54
2024-03-16T13:57:47.772Z,14.47
2024-03-16T14:00:20.194Z,14.37
2024-03-16T14:02:48.735Z,14.21
2024-03-16T14:05:18.140Z,14.14
2024-03-16T14:07:48.797Z,14.02
2024-03-16T14:10:18.650Z,13.97
2024-03-16T14:12:50.226Z,13.85
2024-03-16T14:15:18.448Z,13.64
2024-03-16T14:17:47.384Z,13.53
2024-03-16T14:20:18.554Z,13.28
2024-03-16T14:22:50.115Z,13.11
2024-03-16T14:25:19.020Z,12.92
2024-03-16T14:27:48.733Z,12.83
2024-03-16T14:30:17.254Z,12.67
2024-03-16T14:32:47.704Z,12.54
2024-03-16T14:35:17.257Z,12.48
2024-03-16T14:37:46.321Z,12.40
2024-03-16T14:40:23.106Z,12.20
2024-03-16T14:42:52.025Z,12.16
2024-03-16T14:45:20.262Z,12.01
2024-03-16T14:47:48.559Z,11.86
2024-03-16T14:50:21.073Z,11.80
2024-03-16T14:52:49.431Z,11.71
2024-03-16T14:55:17.692Z,11.54
2024-03-16T14:57:46.061Z,11.47
2024-03-16T15:00:17.221Z,11.37
2024-03-16T15:02:45.497Z,11.33
2024-03-16T15:05:20.040Z,11.26
2024-03-16T15:07:48.462Z,11.22
2024-03-16T15:10:17.546Z,11.20
2024-03-16T15:12:46.303Z,11.16
2024-03-16T15:15:14.731Z,11.08
2024-03-16T15:17:42.877Z,11.08
2024-03-16T15:20:11.179Z,11.01
2024-03-16T15:22:40.692Z,10.92
2024-03-16T15:25:20.035Z,10.88
2024-03-16T15:27:50.909Z,10.86
2024-03-16T15:30:19.670Z,10.87
2024-03-16T15:32:47.900Z,10.87
2024-03-16T15:35:16.234Z,10.82
2024-03-16T15:37:44.960Z,10.80
2024-03-16T15:40:16.288Z,10.75
2024-03-16T15:42:44.849Z,10.68
2024-03-16T15:45:14.605Z,10.65
2024-03-16T15:47:42.589Z,10.61
2024-03-16T15:50:10.872Z,10.50
2024-03-16T15:52:39.189Z,10.53
2024-03-16T15:55:07.895Z,10.45
2024-03-16T15:57:36.570Z,10.42
2024-03-16T16:00:06.370Z,10.44
2024-03-16T16:02:35.546Z,10.40
2024-03-16T16:05:04.777Z,10.37
2024-03-16T16:07:33.190Z,10.31
2024-03-16T16:10:01.509Z,10.26
2024-03-16T16:12:30.878Z,10.22
2024-03-16T16:14:59.202Z,10.19
2024-03-16T16:17:27.464Z,10.15
2024-03-16T16:19:55.819Z,10.09
2024-03-16T16:22:24.216Z,9.98
2024-03-16T16:24:53.151Z,9.89
2024-03-16T16:27:21.529Z,9.88
2024-03-16T16:29:49.813Z,9.82
2024-03-16T16:32:18.149Z,9.76
2024-03-16T16:34:48.216Z,9.72
2024-03-16T16:37:16.524Z,9.72
2024-03-16T16:39:44.888Z,9.74
2024-03-16T16:42:15.812Z,9.73
2024-03-16T16:44:44.065Z,9.72
2024-03-16T16:47:12.439Z,9.66
2024-03-16T16:49:40.832Z,9.66
2024-03-16T16:52:09.189Z,9.60
2024-03-16T16:54:37.394Z,9.59
2024-03-16T16:57:05.705Z,9.50
2024-03-16T16:59:33.844Z,9.47
2024-03-16T17:02:04.610Z,9.42
2024-03-16T17:04:34.040Z,9.37
2024-03-16T17:07:03.760Z,9.38
2024-03-16T17:09:31.929Z,9.33
2024-03-16T17:12:00.253Z,9.25
2024-03-16T17:14:31.257Z,9.22
2024-03-16T17:16:59.978Z,9.12
2024-03-16T17:19:28.533Z,9.09
2024-03-16T17:21:58.429Z,9.10
2024-03-16T17:24:29.149Z,9.07
2024-03-16T17:26:58.180Z,9.03
2024-03-16T17:29:26.487Z,9.06
2024-03-16T17:31:54.680Z,9.02
2024-03-16T17:34:23.066Z,9.00
2024-03-16T17:36:51.373Z,8.98
2024-03-16T17:39:23.914Z,8.93
2024-03-16T17:41:55.636Z,8.91
2024-03-16T17:44:23.907Z,8.90
2024-03-16T17:46:52.234Z,8.90
2024-03-16T17:49:20.864Z,8.84
2024-03-16T17:51:51.242Z,8.84
2024-03-16T17:54:19.610Z,8.76
2024-03-16T17:56:47.959Z,8.72
2024-03-16T17:59:18.612Z,8.68
2024-03-16T18:01:46.906Z,8.67
2024-03-16T18:04:15.369Z,8.65
2024-03-16T18:06:43.739Z,8.63
2024-03-16T18:09:12.032Z,8.63
2024-03-16T18:11:40.417Z,8.61
2024-03-16T18:14:08.830Z,8.61
2024-03-16T18:16:43.842Z,8.61
2024-03-16T18:19:13.310Z,8.58
2024-03-16T18:21:41.923Z,8.56
2024-03-16T18:24:11.452Z,8.53
2024-03-16T18:26:40.859Z,8.51
2024-03-16T18:29:10.045Z,8.48
2024-03-16T18:31:38.590Z,8.46
2024-03-16T18:34:06.995Z,8.43
2024-03-16T18:36:35.261Z,8.43
2024-03-16T18:39:10.841Z,8.43
2024-03-16T18:41:39.086Z,8.41
2024-03-16T18:44:10.178Z,8.42
2024-03-16T18:46:38.421Z,8.43
2024-03-16T18:49:06.608Z,8.43
2024-03-16T18:51:36.536Z,8.42
2024-03-16T18:54:05.074Z,8.38
2024-03-16T18:56:33.343Z,8.35
2024-03-16T18:59:04.580Z,8.31
2024-03-16T19:01:32.892Z,8.30
2024-03-16T19:04:03.282Z,8.30
2024-03-16T19:06:32.461Z,8.32
2024-03-16T19:09:01.214Z,8.28
2024-03-16T19:11:29.515Z,8.31
2024-03-16T19:13:57.824Z,8.29
2024-03-16T19:16:26.205Z,8.26
2024-03-16T19:19:00.409Z,8.18
2024-03-16T19:21:28.717Z,8.17
2024-03-16T19:23:57.753Z,8.15
2024-03-16T19:26:26.147Z,8.18
2024-03-16T19:28:54.613Z,8.16
2024-03-16T19:31:23.192Z,8.13
2024-03-16T19:33:51.470Z,8.06
2024-03-16T19:36:24.468Z,8.07
2024-03-16T19:38:53.502Z,8.05
2024-03-16T19:41:23.582Z,8.02
2024-03-16T19:43:51.967Z,8.02
2024-03-16T19:46:20.424Z,7.96
2024-03-16T19:48:48.790Z,7.95
2024-03-16T19:51:17.191Z,7.95
2024-03-16T19:53:45.511Z,7.91
2024-03-16T19:56:13.976Z,7.88
2024-03-16T19:58:42.328Z,7.88
2024-03-16T20:01:10.713Z,7.84
2024-03-16T20:03:42.886Z,7.82
2024-03-16T20:06:14.133Z,7.81
2024-03-16T20:08:42.536Z,7.79
2024-03-16T20:11:11.545Z,7.75
2024-03-16T20:13:39.673Z,7.72
2024-03-16T20:16:10.145Z,7.71
2024-03-16T20:18:40.312Z,7.71
2024-03-16T20:21:08.674Z,7.68
2024-03-16T20:23:37.015Z,7.67
2024-03-16T20:26:06.745Z,7.64
2024-03-16T20:28:35.262Z,7.62
2024-03-16T20:31:03.677Z,7.49
2024-03-16T20:33:33.136Z,7.59
2024-03-16T20:36:01.425Z,7.57
2024-03-16T20:38:29.666Z,7.56
2024-03-16T20:40:57.942Z,7.54
2024-03-16T20:43:26.049Z,7.52
2024-03-16T20:45:54.615Z,7.47
2024-03-16T20:48:22.744Z,7.33
2024-03-16T20:50:51.031Z,7.43
2024-03-16T20:53:19.956Z,7.38
2024-03-16T20:55:49.821Z,7.41
2024-03-16T20:58:18.168Z,7.39
2024-03-16T21:00:46.312Z,7.41
2024-03-16T21:03:14.642Z,7.37
2024-03-16T21:05:43.173Z,7.40
2024-03-16T21:08:11.459Z,7.39
2024-03-16T21:10:39.702Z,7.39
2024-03-16T21:13:07.845Z,7.39
2024-03-16T21:15:36.138Z,7.38
2024-03-16T21:18:04.934Z,7.38
2024-03-16T21:20:34.046Z,7.36
2024-03-16T21:23:02.280Z,7.36
2024-03-16T21:25:30.656Z,7.31
2024-03-16T21:27:59.200Z,7.31
2024-03-16T21:30:27.704Z,7.27
2024-03-16T21:32:56.167Z,7.22
2024-03-16T21:35:24.392Z,7.26
2024-03-16T21:37:56.798Z,7.19
2024-03-16T21:55:23.944Z,6.88
2024-03-16T21:57:52.316Z,6.84
2024-03-16T22:00:21.566Z,6.84
2024-03-16T22:02:49.821Z,6.84
2024-03-16T22:05:18.439Z,6.85
2024-03-16T22:07:46.806Z,6.84
2024-03-16T22:10:15.095Z,6.89
2024-03-16T22:12:48.296Z,6.88
2024-03-16T22:15:17.932Z,6.85
2024-03-16T22:17:46.113Z,6.93
2024-03-16T22:20:14.505Z,6.92
2024-03-16T22:22:49.578Z,6.91
2024-03-16T22:25:18.971Z,6.91
2024-03-16T22:27:49.713Z,6.89
2024-03-16T22:30:18.694Z,6.85
2024-03-16T22:32:47.032Z,6.81
2024-03-16T22:35:16.707Z,6.81
2024-03-16T22:37:44.860Z,6.79
2024-03-16T22:40:13.195Z,6.74
2024-03-16T22:42:42.706Z,6.68
2024-03-16T22:45:18.046Z,6.68
2024-03-16T22:47:46.412Z,6.61
2024-03-16T22:50:14.819Z,6.56
2024-03-16T22:52:46.522Z,6.51
2024-03-16T22:55:15.028Z,6.50
2024-03-16T22:57:43.314Z,6.47
2024-03-16T23:00:20.156Z,6.43
2024-03-16T23:02:48.772Z,6.50
2024-03-16T23:05:17.141Z,6.49
2024-03-16T23:07:46.146Z,6.51
2024-03-16T23:10:16.014Z,6.51
2024-03-16T23:12:44.211Z,6.51
2024-03-16T23:15:12.703Z,6.49
2024-03-16T23:17:40.927Z,6.43
2024-03-16T23:20:09.891Z,6.39
2024-03-16T23:22:43.066Z,6.35
2024-03-16T23:25:11.463Z,6.35
2024-03-16T23:27:39.720Z,6.35
2024-03-16T23:30:10.167Z,6.34
2024-03-16T23:32:39.967Z,6.32
2024-03-16T23:35:12.040Z,6.33
2024-03-16T23:37:40.583Z,6.31
2024-03-16T23:40:14.525Z,6.31
2024-03-16T23:42:43.002Z,6.26
2024-03-16T23:45:11.134Z,6.28
2024-03-16T23:47:39.673Z,6.30
2024-03-16T23:50:09.128Z,6.29
2024-03-16T23:52:37.857Z,6.31
2024-03-16T23:55:06.911Z,6.31
2024-03-16T23:57:35.132Z,6.30
